createdAt,value
2023-03-01T00:01:37.375Z,10.65
2023-03-01T00:04:05.470Z,9.55
2023-03-01T00:06:53.737Z,10.00
2023-03-01T00:09:21.893Z,12.05
2023-03-01T00:11:51.061Z,11.68
2023-03-01T00:14:19.433Z,12.38
2023-03-01T00:16:48.253Z,13.15
2023-03-01T00:19:19.038Z,13.10
2023-03-01T00:21:48.136Z,11.95
2023-03-01T00:24:17.750Z,13.77
2023-03-01T00:26:47.460Z,14.40
2023-03-01T00:29:15.621Z,14.73
2023-03-01T00:31:43.725Z,13.98
2023-03-01T00:34:11.926Z,13.00
2023-03-01T00:36:40.532Z,12.32
2023-03-01T00:39:13.606Z,11.18
2023-03-01T00:41:44.055Z,12.73
2023-03-01T00:44:12.657Z,13.70
2023-03-01T00:46:41.250Z,11.13
2023-03-01T00:49:10.048Z,12.85
2023-03-01T00:51:38.173Z,11.18
2023-03-01T00:54:06.482Z,11.88
2023-03-01T00:56:34.847Z,11.60
2023-03-01T00:59:04.576Z,10.82
2023-03-01T01:01:33.417Z,12.00
2023-03-01T01:04:04.679Z,12.43
2023-03-01T01:06:35.161Z,10.70
2023-03-01T01:09:04.794Z,12.35
2023-03-01T01:11:33.748Z,12.50
2023-03-01T01:14:01.904Z,12.15
2023-03-01T01:16:32.779Z,14.05
2023-03-01T01:19:01.522Z,13.63
2023-03-01T01:21:30.131Z,12.93
2023-03-01T01:23:59.099Z,12.65
2023-03-01T01:26:29.813Z,12.07
2023-03-01T01:28:58.203Z,13.23
2023-03-01T01:31:27.353Z,13.45
2023-03-01T01:33:57.486Z,11.82
2023-03-01T01:36:25.941Z,11.98
2023-03-01T01:38:54.185Z,13.00
2023-03-01T01:41:23.300Z,11.65
2023-03-01T01:44:14.026Z,13.25
2023-03-01T01:46:44.072Z,12.45
2023-03-01T01:49:26.622Z,13.02
2023-03-01T01:52:02.060Z,12.48
2023-03-01T01:54:33.462Z,12.95
2023-03-01T01:57:05.495Z,14.15
2023-03-01T01:59:35.634Z,12.27
2023-03-01T02:02:06.232Z,12.43
2023-03-01T02:04:35.946Z,12.30
2023-03-01T02:07:08.793Z,13.88
2023-03-01T02:09:37.668Z,10.88
2023-03-01T02:12:07.869Z,12.55
2023-03-01T02:14:36.371Z,10.90
2023-03-01T02:17:05.329Z,12.13
2023-03-01T02:19:51.536Z,10.73
2023-03-01T02:22:24.885Z,11.60
2023-03-01T02:25:07.541Z,12.40
2023-03-01T02:27:43.285Z,12.65
2023-03-01T02:30:14.271Z,13.73
2023-03-01T02:32:43.641Z,12.63
2023-03-01T02:35:14.606Z,12.18
2023-03-01T02:37:44.651Z,12.55
2023-03-01T02:40:17.760Z,20.52
2023-03-01T02:42:51.832Z,33.35
2023-03-01T02:47:49.468Z,17.45
2023-03-01T02:50:37.931Z,13.63
2023-03-01T02:53:12.221Z,13.70
2023-03-01T02:55:40.651Z,14.05
2023-03-01T02:58:09.355Z,14.27
2023-03-01T03:00:47.837Z,14.98
2023-03-01T03:03:18.627Z,12.00
2023-03-01T03:05:46.945Z,11.98
2023-03-01T03:08:17.352Z,12.35
2023-03-01T03:10:45.485Z,14.43
2023-03-01T03:13:16.017Z,12.10
2023-03-01T03:15:46.695Z,13.23
2023-03-01T03:18:16.954Z,12.80
2023-03-01T03:20:46.588Z,12.50
2023-03-01T03:23:15.131Z,12.70
2023-03-01T03:25:43.282Z,12.13
2023-03-01T03:28:11.510Z,12.70
2023-03-01T03:30:42.196Z,12.65
2023-03-01T03:33:13.662Z,10.55
2023-03-01T03:35:44.582Z,11.60
2023-03-01T03:38:17.768Z,10.95
2023-03-01T03:40:48.959Z,13.25
2023-03-01T03:43:18.649Z,22.25
2023-03-01T03:45:47.336Z,19.30
2023-03-01T03:48:18.270Z,16.25
2023-03-01T03:50:50.762Z,13.90
2023-03-01T03:53:19.541Z,13.68
2023-03-01T03:55:50.159Z,12.63
2023-03-01T03:58:20.906Z,13.13
2023-03-01T04:00:51.146Z,12.82
2023-03-01T04:03:22.228Z,12.85
2023-03-01T04:05:51.498Z,11.60
2023-03-01T04:08:21.596Z,11.50
2023-03-01T04:10:52.282Z,12.68
2023-03-01T04:13:22.166Z,12.15
2023-03-01T04:15:51.590Z,11.55
2023-03-01T04:18:23.697Z,12.55
2023-03-01T04:20:53.114Z,12.90
2023-03-01T04:23:22.397Z,12.13
2023-03-01T04:25:55.009Z,12.55
2023-03-01T04:28:25.463Z,12.77
2023-03-01T04:30:54.127Z,15.52
2023-03-01T04:33:24.288Z,13.00
2023-03-01T04:35:52.467Z,12.68
2023-03-01T04:38:22.257Z,13.80
2023-03-01T04:40:50.842Z,17.20
2023-03-01T04:43:19.106Z,15.25
2023-03-01T04:45:47.378Z,13.82
2023-03-01T04:48:15.819Z,13.05
2023-03-01T04:50:45.263Z,13.90
2023-03-01T04:53:13.633Z,14.25
2023-03-01T04:55:41.918Z,12.63
2023-03-01T04:58:10.102Z,12.45
2023-03-01T05:00:38.227Z,12.45
2023-03-01T05:03:06.607Z,14.20
2023-03-01T05:05:37.150Z,13.80
2023-03-01T05:08:09.136Z,14.30
2023-03-01T05:10:39.713Z,13.68
2023-03-01T05:13:08.336Z,15.25
2023-03-01T05:15:37.541Z,14.73
2023-03-01T05:18:08.141Z,14.25
2023-03-01T05:20:37.438Z,14.23
2023-03-01T05:23:07.812Z,12.27
2023-03-01T05:25:41.009Z,12.40
2023-03-01T05:28:14.070Z,14.02
2023-03-01T05:30:42.921Z,13.52
2023-03-01T05:33:14.725Z,13.90
2023-03-01T05:35:43.646Z,13.02
2023-03-01T05:38:14.425Z,18.15
2023-03-01T05:40:43.437Z,14.60
2023-03-01T05:43:12.458Z,12.75
2023-03-01T05:45:41.772Z,13.38
2023-03-01T05:48:12.200Z,15.10
2023-03-01T05:50:43.221Z,13.80
2023-03-01T05:53:14.971Z,13.55
2023-03-01T05:55:43.960Z,14.32
2023-03-01T05:58:15.110Z,12.50
2023-03-01T06:00:44.199Z,14.65
2023-03-01T06:03:13.560Z,12.73
2023-03-01T06:05:42.524Z,15.27
2023-03-01T06:08:14.494Z,15.52
2023-03-01T06:10:43.441Z,14.43
2023-03-01T06:13:11.561Z,12.75
2023-03-01T06:15:39.893Z,13.10
2023-03-01T06:18:08.203Z,16.38
2023-03-01T06:20:36.524Z,18.92
2023-03-01T06:23:05.119Z,18.77
2023-03-01T06:25:34.818Z,22.30
2023-03-01T06:28:02.902Z,27.08
2023-03-01T06:30:31.111Z,15.02
2023-03-01T06:33:02.493Z,18.15
2023-03-01T06:35:32.097Z,18.40
2023-03-01T06:38:01.171Z,15.70
2023-03-01T06:40:30.115Z,15.60
2023-03-01T06:43:00.248Z,13.35
2023-03-01T06:45:28.622Z,16.48
2023-03-01T06:48:04.725Z,17.92
2023-03-01T06:50:33.253Z,15.45
2023-03-01T06:53:01.687Z,17.23
2023-03-01T06:55:30.534Z,14.38
2023-03-01T06:58:01.015Z,14.18
2023-03-01T07:00:30.264Z,17.35
2023-03-01T07:03:03.035Z,17.92
2023-03-01T07:05:31.781Z,17.85
2023-03-01T07:07:59.918Z,16.83
2023-03-01T07:10:28.425Z,13.18
2023-03-01T07:13:00.889Z,15.68
2023-03-01T07:15:31.133Z,15.38
2023-03-01T07:17:59.452Z,15.85
2023-03-01T07:20:27.701Z,14.15
2023-03-01T07:22:57.597Z,13.43
2023-03-01T07:25:25.922Z,14.48
2023-03-01T07:27:54.938Z,15.93
2023-03-01T07:30:27.035Z,16.00
2023-03-01T07:32:55.974Z,15.00
2023-03-01T07:35:24.895Z,17.58
2023-03-01T07:37:53.528Z,16.48
2023-03-01T07:40:22.061Z,15.85
2023-03-01T07:42:50.193Z,14.30
2023-03-01T07:45:18.352Z,14.50
2023-03-01T07:47:47.933Z,17.23
2023-03-01T07:50:16.455Z,18.27
2023-03-01T07:52:46.919Z,19.85
2023-03-01T07:55:15.648Z,15.57
2023-03-01T07:57:43.844Z,18.83
2023-03-01T08:00:14.317Z,19.95
2023-03-01T08:02:43.127Z,19.45
2023-03-01T08:05:12.741Z,16.35
2023-03-01T08:07:41.301Z,18.95
2023-03-01T08:10:10.523Z,19.50
2023-03-01T08:12:42.447Z,21.92
2023-03-01T08:15:12.297Z,23.90
2023-03-01T08:17:40.500Z,18.42
2023-03-01T08:20:13.669Z,20.83
2023-03-01T08:22:43.314Z,15.73
2023-03-01T08:25:11.720Z,22.00
2023-03-01T08:27:40.116Z,17.55
2023-03-01T08:30:10.102Z,21.75
2023-03-01T08:32:39.952Z,17.70
2023-03-01T08:35:09.080Z,16.33
2023-03-01T08:37:37.237Z,15.05
2023-03-01T08:40:11.115Z,15.10
2023-03-01T08:42:39.357Z,16.52
2023-03-01T08:45:08.392Z,14.65
2023-03-01T08:47:36.962Z,13.70
2023-03-01T08:50:06.141Z,16.80
2023-03-01T08:52:35.020Z,13.73
2023-03-01T08:55:03.667Z,10.82
2023-03-01T09:00:36.578Z,12.52
2023-03-01T09:03:05.386Z,10.82
2023-03-01T09:05:33.959Z,14.38
2023-03-01T09:08:02.592Z,10.35
2023-03-01T09:10:30.684Z,11.25
2023-03-01T09:12:58.786Z,13.18
2023-03-01T09:15:27.791Z,10.95
2023-03-01T09:17:57.288Z,10.23
2023-03-01T09:20:25.524Z,10.75
2023-03-01T09:22:54.017Z,11.55
2023-03-01T09:25:22.046Z,8.60
2023-03-01T09:27:50.214Z,13.82
2023-03-01T09:30:19.072Z,7.75
2023-03-01T09:32:47.434Z,8.93
2023-03-01T09:35:17.060Z,9.23
2023-03-01T09:37:46.286Z,7.63
2023-03-01T09:40:18.199Z,5.22
2023-03-01T09:42:55.886Z,6.63
2023-03-01T09:45:30.875Z,6.03
2023-03-01T09:48:00.007Z,5.53
2023-03-01T09:50:33.808Z,5.47
2023-03-01T09:53:04.647Z,5.30
2023-03-01T09:55:39.333Z,3.90
2023-03-01T09:58:38.190Z,3.78
2023-03-01T10:01:25.823Z,3.55
2023-03-01T10:04:06.831Z,3.00
2023-03-01T10:06:36.464Z,3.25
2023-03-01T10:09:10.553Z,2.90
2023-03-01T10:11:46.058Z,2.60
2023-03-01T10:14:24.456Z,2.50
2023-03-01T10:16:59.883Z,3.15
2023-03-01T10:19:34.520Z,2.88
2023-03-01T10:22:11.579Z,3.05
2023-03-01T10:24:40.062Z,5.18
2023-03-01T10:27:14.859Z,4.38
2023-03-01T10:29:51.138Z,4.25
2023-03-01T10:32:20.497Z,2.85
2023-03-01T10:34:49.258Z,2.88
2023-03-01T10:37:22.665Z,3.00
2023-03-01T10:42:31.077Z,5.90
2023-03-01T10:44:59.467Z,3.30
2023-03-01T10:47:29.343Z,4.78
2023-03-01T10:50:02.934Z,4.28
2023-03-01T10:52:38.009Z,3.50
2023-03-01T10:55:26.855Z,4.25
2023-03-01T10:58:09.997Z,4.60
2023-03-01T11:00:49.686Z,4.35
2023-03-01T11:03:23.084Z,3.15
2023-03-01T11:06:03.565Z,4.95
2023-03-01T11:08:36.037Z,5.30
2023-03-01T11:11:15.364Z,5.25
2023-03-01T11:13:53.362Z,3.78
2023-03-01T11:16:31.907Z,3.17
2023-03-01T11:19:16.949Z,6.20
2023-03-01T11:21:55.756Z,3.53
2023-03-01T11:24:32.392Z,5.20
2023-03-01T11:27:04.715Z,5.20
2023-03-01T11:29:47.689Z,4.53
2023-03-01T11:32:17.756Z,4.50
2023-03-01T11:34:50.249Z,2.58
2023-03-01T11:37:26.622Z,5.53
2023-03-01T11:40:05.724Z,4.28
2023-03-01T11:42:46.430Z,5.80
2023-03-01T11:45:15.289Z,4.72
2023-03-01T11:48:06.025Z,5.82
2023-03-01T11:50:41.837Z,5.18
2023-03-01T11:53:46.496Z,4.93
2023-03-01T11:56:27.957Z,4.32
2023-03-01T11:59:26.860Z,3.35
2023-03-01T12:02:21.932Z,3.78
2023-03-01T12:05:19.960Z,4.40
2023-03-01T12:07:55.499Z,5.05
2023-03-01T12:10:28.488Z,4.47
2023-03-01T12:13:39.611Z,3.60
2023-03-01T12:16:36.274Z,4.82
2023-03-01T12:19:41.712Z,3.03
2023-03-01T12:22:22.612Z,4.07
2023-03-01T12:25:20.827Z,4.00
2023-03-01T12:28:12.812Z,3.65
2023-03-01T12:30:53.386Z,3.50
2023-03-01T12:33:27.685Z,4.13
2023-03-01T12:36:18.756Z,3.55
2023-03-01T12:38:52.532Z,4.85
2023-03-01T12:41:38.046Z,4.32
2023-03-01T12:44:26.511Z,2.72
2023-03-01T12:47:12.708Z,4.72
2023-03-01T12:49:45.207Z,4.32
2023-03-01T12:52:18.910Z,3.90
2023-03-01T12:54:48.314Z,4.05
2023-03-01T12:57:23.342Z,4.93
2023-03-01T13:00:09.388Z,2.40
2023-03-01T13:02:47.846Z,3.47
2023-03-01T13:05:31.482Z,3.28
2023-03-01T13:08:07.562Z,3.83
2023-03-01T13:10:41.805Z,5.18
2023-03-01T13:13:22.003Z,3.95
2023-03-01T13:15:52.155Z,3.47
2023-03-01T13:18:33.241Z,4.00
2023-03-01T13:21:06.621Z,4.65
2023-03-01T13:23:37.909Z,4.43
2023-03-01T13:26:15.950Z,3.35
2023-03-01T13:28:58.159Z,4.30
2023-03-01T13:32:02.745Z,3.40
2023-03-01T13:34:49.804Z,4.47
2023-03-01T13:37:33.808Z,5.35
2023-03-01T13:40:06.548Z,3.90
2023-03-01T13:42:41.995Z,5.22
2023-03-01T13:45:22.773Z,4.53
2023-03-01T13:47:59.600Z,6.65
2023-03-01T13:50:33.684Z,4.57
2023-03-01T13:55:39.637Z,4.90
2023-03-01T13:58:20.864Z,4.90
2023-03-01T14:00:49.183Z,5.50
2023-03-01T14:03:19.174Z,5.32
2023-03-01T14:06:13.004Z,6.30
2023-03-01T14:08:42.462Z,5.25
2023-03-01T14:11:37.500Z,8.35
2023-03-01T14:14:56.760Z,5.75
2023-03-01T14:17:47.103Z,6.47
2023-03-01T14:20:20.378Z,5.65
2023-03-01T14:22:54.287Z,9.98
2023-03-01T14:25:26.806Z,6.50
2023-03-01T14:28:06.300Z,7.78
2023-03-01T14:30:38.494Z,8.10
2023-03-01T14:33:08.974Z,8.30
2023-03-01T14:35:38.491Z,9.45
2023-03-01T14:38:07.872Z,7.97
2023-03-01T14:40:38.275Z,7.38
2023-03-01T14:43:13.077Z,6.75
2023-03-01T14:45:41.568Z,7.47
2023-03-01T14:48:09.977Z,7.50
2023-03-01T14:50:43.406Z,9.63
2023-03-01T14:53:19.949Z,10.82
2023-03-01T14:55:52.609Z,9.23
2023-03-01T14:58:23.913Z,9.10
2023-03-01T15:00:54.760Z,8.45
2023-03-01T15:03:29.782Z,7.60
2023-03-01T15:05:58.493Z,9.38
2023-03-01T15:08:34.105Z,7.35
2023-03-01T15:11:08.625Z,8.15
2023-03-01T15:13:38.070Z,9.10
2023-03-01T15:16:09.987Z,7.68
2023-03-01T15:18:39.148Z,7.80
2023-03-01T15:21:12.247Z,7.30
2023-03-01T15:23:42.324Z,8.15
2023-03-01T15:26:25.227Z,9.98
2023-03-01T15:28:55.857Z,9.30
2023-03-01T15:31:26.048Z,12.27
2023-03-01T15:33:54.739Z,12.55
2023-03-01T15:36:38.329Z,13.35
2023-03-01T15:39:28.272Z,12.65
2023-03-01T15:41:56.596Z,12.00
2023-03-01T15:44:34.990Z,12.65
2023-03-01T15:47:26.712Z,12.80
2023-03-01T15:49:56.318Z,14.63
2023-03-01T15:52:30.099Z,11.98
2023-03-01T15:55:05.663Z,11.00
2023-03-01T15:57:33.841Z,11.18
2023-03-01T16:00:01.981Z,14.50
2023-03-01T16:02:33.098Z,15.50
2023-03-01T16:05:01.231Z,13.55
2023-03-01T16:07:29.274Z,11.68
2023-03-01T16:09:57.806Z,12.27
2023-03-01T16:12:27.188Z,11.63
2023-03-01T16:14:55.410Z,11.77
2023-03-01T16:17:23.645Z,14.00
2023-03-01T16:19:51.768Z,13.25
2023-03-01T16:22:26.100Z,16.75
2023-03-01T16:24:54.466Z,16.10
2023-03-01T16:27:22.532Z,12.68
2023-03-01T16:29:53.526Z,14.50
2023-03-01T16:32:21.707Z,12.27
2023-03-01T16:34:50.377Z,13.40
2023-03-01T16:37:20.422Z,12.57
2023-03-01T16:39:49.810Z,11.73
2023-03-01T16:42:18.706Z,12.88
2023-03-01T16:44:46.946Z,15.27
2023-03-01T16:47:16.328Z,14.90
2023-03-01T16:49:44.432Z,16.58
2023-03-01T16:52:12.906Z,13.85
2023-03-01T16:54:41.554Z,16.40
2023-03-01T16:57:09.859Z,14.60
2023-03-01T16:59:38.455Z,18.77
2023-03-01T17:02:09.070Z,16.58
2023-03-01T17:04:39.202Z,20.10
2023-03-01T17:07:07.334Z,19.10
2023-03-01T17:09:37.633Z,18.27
2023-03-01T17:12:06.487Z,17.58
2023-03-01T17:14:35.863Z,18.40
2023-03-01T17:17:04.553Z,21.02
2023-03-01T17:19:33.070Z,20.63
2023-03-01T17:22:02.476Z,23.08
2023-03-01T17:24:34.250Z,22.45
2023-03-01T17:27:02.364Z,20.48
2023-03-01T17:29:30.475Z,20.45
2023-03-01T17:31:59.670Z,20.08
2023-03-01T17:34:28.348Z,20.95
2023-03-01T17:36:56.577Z,20.65
2023-03-01T17:39:32.268Z,21.77
2023-03-01T17:42:00.871Z,21.65
2023-03-01T17:44:28.906Z,19.77
2023-03-01T17:46:57.342Z,21.48
2023-03-01T17:49:25.453Z,20.67
2023-03-01T17:51:53.454Z,21.80
2023-03-01T17:54:21.946Z,21.83
2023-03-01T17:56:51.582Z,22.92
2023-03-01T17:59:19.677Z,24.92
2023-03-01T18:01:48.461Z,23.50
2023-03-01T18:04:18.371Z,24.80
2023-03-01T18:06:46.713Z,27.70
2023-03-01T18:09:15.352Z,26.77
2023-03-01T18:11:46.189Z,31.02
2023-03-01T18:14:16.755Z,30.00
2023-03-01T18:16:44.833Z,33.35
2023-03-01T18:19:13.597Z,27.10
2023-03-01T18:21:41.999Z,28.30
2023-03-01T18:24:10.170Z,30.95
2023-03-01T18:26:40.182Z,30.90
2023-03-01T18:29:08.513Z,32.63
2023-03-01T18:31:37.897Z,32.47
2023-03-01T18:34:06.130Z,33.67
2023-03-01T18:36:36.952Z,32.80
2023-03-01T18:39:07.894Z,33.97
2023-03-01T18:41:36.957Z,30.52
2023-03-01T18:44:06.914Z,32.85
2023-03-01T18:46:37.915Z,29.45
2023-03-01T18:49:08.106Z,30.55
2023-03-01T18:51:36.178Z,31.20
2023-03-01T18:54:05.278Z,33.35
2023-03-01T18:56:35.389Z,31.42
2023-03-01T18:59:04.044Z,34.80
2023-03-01T19:01:36.671Z,33.03
2023-03-01T19:04:09.214Z,30.90
2023-03-01T19:06:38.177Z,33.05
2023-03-01T19:09:07.659Z,34.15
2023-03-01T19:11:36.326Z,32.47
2023-03-01T19:14:05.644Z,31.38
2023-03-01T19:16:36.012Z,36.60
2023-03-01T19:19:08.613Z,37.63
2023-03-01T19:21:36.854Z,36.97
2023-03-01T19:24:05.414Z,33.88
2023-03-01T19:26:34.654Z,33.75
2023-03-01T19:29:03.753Z,36.58
2023-03-01T19:31:32.368Z,35.97
2023-03-01T19:34:11.934Z,40.20
2023-03-01T19:36:43.058Z,37.45
2023-03-01T19:39:14.151Z,39.65
2023-03-01T19:41:42.843Z,39.05
2023-03-01T19:44:11.506Z,37.92
2023-03-01T19:46:40.105Z,42.65
2023-03-01T19:49:08.242Z,41.35
2023-03-01T19:51:38.882Z,43.80
2023-03-01T19:54:09.902Z,42.00
2023-03-01T19:56:38.388Z,39.28
2023-03-01T19:59:06.849Z,38.92
2023-03-01T20:01:37.617Z,40.22
2023-03-01T20:04:06.468Z,42.20
2023-03-01T20:06:34.855Z,39.90
2023-03-01T20:09:12.329Z,38.13
2023-03-01T20:11:48.883Z,39.58
2023-03-01T20:14:17.154Z,37.17
2023-03-01T20:16:45.251Z,35.15
2023-03-01T20:19:13.315Z,36.35
2023-03-01T20:21:41.426Z,39.95
2023-03-01T20:24:09.785Z,34.72
2023-03-01T20:26:38.206Z,37.42
2023-03-01T20:29:09.047Z,37.53
2023-03-01T20:31:37.577Z,37.25
2023-03-01T20:34:05.637Z,33.00
2023-03-01T20:36:35.094Z,30.75
2023-03-01T20:39:03.256Z,26.50
2023-03-01T20:41:31.503Z,28.70
2023-03-01T20:44:00.480Z,29.67
2023-03-01T20:46:32.499Z,26.17
2023-03-01T20:49:01.431Z,27.27
2023-03-01T20:51:29.695Z,25.75
2023-03-01T20:53:58.080Z,23.48
2023-03-01T20:56:27.541Z,22.02
2023-03-01T20:59:05.373Z,19.73
2023-03-01T21:01:35.278Z,21.42
2023-03-01T21:04:03.413Z,20.40
2023-03-01T21:06:32.227Z,22.35
2023-03-01T21:09:00.641Z,18.33
2023-03-01T21:11:28.708Z,19.52
2023-03-01T21:13:56.948Z,19.92
2023-03-01T21:16:26.071Z,19.65
2023-03-01T21:18:55.673Z,21.45
2023-03-01T21:21:24.919Z,20.90
2023-03-01T21:23:53.169Z,22.70
2023-03-01T21:26:23.044Z,21.65
2023-03-01T21:28:54.717Z,19.77
2023-03-01T21:31:24.658Z,20.45
2023-03-01T21:33:56.113Z,21.23
2023-03-01T21:36:25.825Z,20.25
2023-03-01T21:38:54.957Z,22.25
2023-03-01T21:41:24.955Z,19.50
2023-03-01T21:43:54.973Z,19.23
2023-03-01T21:46:25.732Z,20.95
2023-03-01T21:48:56.297Z,23.17
2023-03-01T21:51:26.054Z,21.48
2023-03-01T21:53:56.171Z,21.10
2023-03-01T21:56:26.116Z,22.45
2023-03-01T21:58:55.316Z,22.50
2023-03-01T22:01:26.050Z,20.13
2023-03-01T22:03:56.037Z,18.73
2023-03-01T22:06:28.155Z,18.98
2023-03-01T22:08:59.280Z,19.63
2023-03-01T22:11:28.468Z,21.52
2023-03-01T22:13:57.655Z,22.58
2023-03-01T22:16:27.938Z,23.50
2023-03-01T22:18:58.693Z,19.50
2023-03-01T22:21:27.594Z,20.88
2023-03-01T22:23:57.195Z,18.00
2023-03-01T22:26:29.395Z,18.95
2023-03-01T22:29:00.909Z,20.13
2023-03-01T22:31:30.101Z,21.00
2023-03-01T22:34:02.100Z,35.10
2023-03-01T22:36:30.703Z,25.60
2023-03-01T22:39:01.938Z,20.88
2023-03-01T22:41:31.929Z,17.25
2023-03-01T22:44:00.185Z,16.90
2023-03-01T22:46:29.404Z,17.17
2023-03-01T22:48:57.923Z,19.60
2023-03-01T22:51:29.024Z,19.50
2023-03-01T22:53:57.378Z,17.25
2023-03-01T22:56:28.823Z,18.17
2023-03-01T22:58:58.155Z,20.35
2023-03-01T23:01:27.572Z,20.00
2023-03-01T23:03:56.476Z,19.17
2023-03-01T23:06:25.245Z,21.08
2023-03-01T23:08:56.576Z,19.58
2023-03-01T23:11:26.343Z,19.77
2023-03-01T23:13:55.353Z,19.55
2023-03-01T23:16:26.455Z,22.48
2023-03-01T23:18:56.013Z,19.52
2023-03-01T23:21:24.314Z,19.73
2023-03-01T23:23:55.064Z,20.48
2023-03-01T23:26:23.493Z,21.70
2023-03-01T23:28:51.903Z,19.90
2023-03-01T23:31:20.404Z,20.60
2023-03-01T23:33:49.323Z,20.48
2023-03-01T23:36:19.654Z,20.90
2023-03-01T23:38:49.025Z,21.88
2023-03-01T23:41:21.117Z,21.42
2023-03-01T23:43:50.830Z,22.55
2023-03-01T23:46:21.350Z,22.45
2023-03-01T23:48:50.288Z,22.52
2023-03-01T23:51:19.462Z,20.80
2023-03-01T23:53:54.814Z,23.90
2023-03-01T23:56:26.751Z,22.98
2023-03-01T23:58:55.970Z,22.05
